sensor_id;sensor_type;location;lat;lon;timestamp;P1;durP1;ratioP1;P2;durP2;ratioP2
52015;SDS011;38032;53.326;6.472;2022-08-19T00:00:41;11.43;;;8.00;;
52015;SDS011;38032;53.326;6.472;2022-08-19T00:03:07;12.52;;;9.10;;
52015;SDS011;38032;53.326;6.472;2022-08-19T00:05:33;11.75;;;8.23;;
52015;SDS011;38032;53.326;6.472;2022-08-19T00:07:59;15.60;;;10.43;;
52015;SDS011;38032;53.326;6.472;2022-08-19T00:10:25;11.15;;;8.93;;
52015;SDS011;38032;53.326;6.472;2022-08-19T00:12:50;11.18;;;8.10;;
52015;SDS011;38032;53.326;6.472;2022-08-19T00:15:17;11.45;;;7.97;;
52015;SDS011;38032;53.326;6.472;2022-08-19T00:17:45;10.95;;;7.90;;
52015;SDS011;38032;53.326;6.472;2022-08-19T00:20:13;11.65;;;8.50;;
52015;SDS011;38032;53.326;6.472;2022-08-19T00:22:42;11.05;;;7.10;;
52015;SDS011;38032;53.326;6.472;2022-08-19T00:25:09;9.80;;;6.65;;
52015;SDS011;38032;53.326;6.472;2022-08-19T00:27:35;7.97;;;5.95;;
52015;SDS011;38032;53.326;6.472;2022-08-19T00:30:02;9.93;;;5.47;;
52015;SDS011;38032;53.326;6.472;2022-08-19T00:32:29;9.35;;;5.78;;
52015;SDS011;38032;53.326;6.472;2022-08-19T00:34:55;9.32;;;4.95;;
52015;SDS011;38032;53.326;6.472;2022-08-19T00:37:21;7.45;;;5.30;;
52015;SDS011;38032;53.326;6.472;2022-08-19T00:39:49;6.47;;;4.90;;
52015;SDS011;38032;53.326;6.472;2022-08-19T00:42:16;8.40;;;5.55;;
52015;SDS011;38032;53.326;6.472;2022-08-19T00:44:44;5.93;;;4.65;;
52015;SDS011;38032;53.326;6.472;2022-08-19T00:47:09;6.18;;;4.32;;
52015;SDS011;38032;53.326;6.472;2022-08-19T00:49:37;9.93;;;6.50;;
52015;SDS011;38032;53.326;6.472;2022-08-19T00:52:12;6.88;;;5.30;;
52015;SDS011;38032;53.326;6.472;2022-08-19T00:54:42;6.32;;;4.18;;
52015;SDS011;38032;53.326;6.472;2022-08-19T00:57:10;6.60;;;4.05;;
52015;SDS011;38032;53.326;6.472;2022-08-19T00:59:40;7.63;;;5.85;;
52015;SDS011;38032;53.326;6.472;2022-08-19T01:02:07;9.73;;;8.00;;
52015;SDS011;38032;53.326;6.472;2022-08-19T01:04:33;5.95;;;4.65;;
52015;SDS011;38032;53.326;6.472;2022-08-19T01:06:59;4.15;;;3.42;;
52015;SDS011;38032;53.326;6.472;2022-08-19T01:09:26;5.22;;;3.63;;
52015;SDS011;38032;53.326;6.472;2022-08-19T01:11:52;4.80;;;3.30;;
52015;SDS011;38032;53.326;6.472;2022-08-19T01:14:18;5.80;;;4.22;;
52015;SDS011;38032;53.326;6.472;2022-08-19T01:16:44;3.78;;;2.72;;
52015;SDS011;38032;53.326;6.472;2022-08-19T01:19:18;3.75;;;2.92;;
52015;SDS011;38032;53.326;6.472;2022-08-19T01:21:52;12.57;;;6.93;;
52015;SDS011;38032;53.326;6.472;2022-08-19T01:24:24;7.82;;;5.03;;
52015;SDS011;38032;53.326;6.472;2022-08-19T01:26:49;15.30;;;9.77;;
52015;SDS011;38032;53.326;6.472;2022-08-19T01:29:15;15.82;;;10.35;;
52015;SDS011;38032;53.326;6.472;2022-08-19T01:31:41;14.55;;;9.57;;
52015;SDS011;38032;53.326;6.472;2022-08-19T01:34:07;13.00;;;9.05;;
52015;SDS011;38032;53.326;6.472;2022-08-19T01:36:38;12.68;;;9.80;;
52015;SDS011;38032;53.326;6.472;2022-08-19T01:39:08;13.63;;;9.82;;
52015;SDS011;38032;53.326;6.472;2022-08-19T01:41:35;16.52;;;10.60;;
52015;SDS011;38032;53.326;6.472;2022-08-19T01:44:04;16.42;;;10.77;;
52015;SDS011;38032;53.326;6.472;2022-08-19T01:46:31;13.65;;;10.20;;
52015;SDS011;38032;53.326;6.472;2022-08-19T01:52:25;14.90;;;8.68;;
52015;SDS011;38032;53.326;6.472;2022-08-19T01:54:52;14.20;;;9.15;;
52015;SDS011;38032;53.326;6.472;2022-08-19T01:57:18;10.90;;;8.27;;
52015;SDS011;38032;53.326;6.472;2022-08-19T01:59:44;13.98;;;9.93;;
52015;SDS011;38032;53.326;6.472;2022-08-19T02:02:10;10.45;;;6.90;;
52015;SDS011;38032;53.326;6.472;2022-08-19T02:04:37;12.02;;;8.85;;
52015;SDS011;38032;53.326;6.472;2022-08-19T02:07:04;12.10;;;7.90;;
52015;SDS011;38032;53.326;6.472;2022-08-19T02:09:30;11.10;;;8.05;;
52015;SDS011;38032;53.326;6.472;2022-08-19T02:11:57;13.98;;;8.75;;
52015;SDS011;38032;53.326;6.472;2022-08-19T02:14:23;12.23;;;8.95;;
52015;SDS011;38032;53.326;6.472;2022-08-19T02:16:49;15.48;;;9.45;;
52015;SDS011;38032;53.326;6.472;2022-08-19T02:19:15;13.65;;;10.00;;
52015;SDS011;38032;53.326;6.472;2022-08-19T02:21:40;15.05;;;10.05;;
52015;SDS011;38032;53.326;6.472;2022-08-19T02:24:07;14.90;;;9.73;;
52015;SDS011;38032;53.326;6.472;2022-08-19T02:26:33;18.45;;;10.50;;
52015;SDS011;38032;53.326;6.472;2022-08-19T02:28:59;13.30;;;9.82;;
52015;SDS011;38032;53.326;6.472;2022-08-19T02:31:25;14.85;;;10.23;;
52015;SDS011;38032;53.326;6.472;2022-08-19T02:33:53;11.70;;;8.05;;
52015;SDS011;38032;53.326;6.472;2022-08-19T02:36:20;11.70;;;7.18;;
52015;SDS011;38032;53.326;6.472;2022-08-19T02:38:47;9.75;;;6.82;;
52015;SDS011;38032;53.326;6.472;2022-08-19T02:41:14;12.95;;;9.38;;
52015;SDS011;38032;53.326;6.472;2022-08-19T02:43:42;12.77;;;8.75;;
52015;SDS011;38032;53.326;6.472;2022-08-19T02:46:12;11.23;;;9.10;;
52015;SDS011;38032;53.326;6.472;2022-08-19T02:48:39;12.95;;;8.73;;
52015;SDS011;38032;53.326;6.472;2022-08-19T02:51:05;11.50;;;8.63;;
52015;SDS011;38032;53.326;6.472;2022-08-19T02:53:31;14.68;;;9.20;;
52015;SDS011;38032;53.326;6.472;2022-08-19T02:55:56;9.98;;;8.02;;
52015;SDS011;38032;53.326;6.472;2022-08-19T02:58:22;11.20;;;8.60;;
52015;SDS011;38032;53.326;6.472;2022-08-19T03:00:50;13.90;;;8.18;;
52015;SDS011;38032;53.326;6.472;2022-08-19T03:03:18;10.32;;;8.40;;
52015;SDS011;38032;53.326;6.472;2022-08-19T03:05:44;8.25;;;6.15;;
52015;SDS011;38032;53.326;6.472;2022-08-19T03:08:10;8.48;;;6.03;;
52015;SDS011;38032;53.326;6.472;2022-08-19T03:10:44;8.82;;;6.68;;
52015;SDS011;38032;53.326;6.472;2022-08-19T03:13:12;8.90;;;6.72;;
52015;SDS011;38032;53.326;6.472;2022-08-19T03:15:40;11.75;;;8.43;;
52015;SDS011;38032;53.326;6.472;2022-08-19T03:18:09;9.02;;;7.25;;
52015;SDS011;38032;53.326;6.472;2022-08-19T03:20:43;10.02;;;6.95;;
52015;SDS011;38032;53.326;6.472;2022-08-19T03:23:10;10.70;;;7.95;;
52015;SDS011;38032;53.326;6.472;2022-08-19T03:25:38;13.30;;;8.20;;
52015;SDS011;38032;53.326;6.472;2022-08-19T03:28:07;10.60;;;7.82;;
52015;SDS011;38032;53.326;6.472;2022-08-19T03:30:33;10.82;;;7.85;;
52015;SDS011;38032;53.326;6.472;2022-08-19T03:32:59;13.15;;;8.55;;
52015;SDS011;38032;53.326;6.472;2022-08-19T03:35:24;11.88;;;7.40;;
52015;SDS011;38032;53.326;6.472;2022-08-19T03:37:51;10.90;;;7.55;;
52015;SDS011;38032;53.326;6.472;2022-08-19T03:40:17;9.80;;;6.88;;
52015;SDS011;38032;53.326;6.472;2022-08-19T03:42:44;11.25;;;8.10;;
52015;SDS011;38032;53.326;6.472;2022-08-19T03:45:11;9.63;;;7.97;;
52015;SDS011;38032;53.326;6.472;2022-08-19T03:47:37;9.80;;;7.65;;
52015;SDS011;38032;53.326;6.472;2022-08-19T03:50:03;10.20;;;7.90;;
52015;SDS011;38032;53.326;6.472;2022-08-19T03:52:29;10.50;;;7.95;;
52015;SDS011;38032;53.326;6.472;2022-08-19T03:54:55;11.50;;;8.07;;
52015;SDS011;38032;53.326;6.472;2022-08-19T03:57:21;11.20;;;7.63;;
52015;SDS011;38032;53.326;6.472;2022-08-19T03:59:47;6.47;;;5.03;;
52015;SDS011;38032;53.326;6.472;2022-08-19T04:02:13;9.25;;;6.85;;
52015;SDS011;38032;53.326;6.472;2022-08-19T04:04:39;10.55;;;7.18;;
52015;SDS011;38032;53.326;6.472;2022-08-19T04:07:08;11.13;;;7.82;;
52015;SDS011;38032;53.326;6.472;2022-08-19T04:09:35;8.27;;;6.10;;
52015;SDS011;38032;53.326;6.472;2022-08-19T04:12:01;11.98;;;7.55;;
52015;SDS011;38032;53.326;6.472;2022-08-19T04:14:30;10.40;;;7.57;;
52015;SDS011;38032;53.326;6.472;2022-08-19T04:16:57;8.98;;;5.70;;
52015;SDS011;38032;53.326;6.472;2022-08-19T04:19:24;8.85;;;6.53;;
52015;SDS011;38032;53.326;6.472;2022-08-19T04:21:51;7.57;;;5.55;;
52015;SDS011;38032;53.326;6.472;2022-08-19T04:24:18;10.63;;;6.22;;
52015;SDS011;38032;53.326;6.472;2022-08-19T04:26:45;10.15;;;7.60;;
52015;SDS011;38032;53.326;6.472;2022-08-19T04:29:13;12.80;;;7.72;;
52015;SDS011;38032;53.326;6.472;2022-08-19T04:31:42;10.05;;;6.82;;
52015;SDS011;38032;53.326;6.472;2022-08-19T04:34:10;9.30;;;6.95;;
52015;SDS011;38032;53.326;6.472;2022-08-19T04:36:38;8.95;;;5.68;;
52015;SDS011;38032;53.326;6.472;2022-08-19T04:39:10;11.27;;;8.05;;
52015;SDS011;38032;53.326;6.472;2022-08-19T04:41:38;10.70;;;7.95;;
52015;SDS011;38032;53.326;6.472;2022-08-19T04:44:23;11.90;;;7.97;;
52015;SDS011;38032;53.326;6.472;2022-08-19T04:46:49;12.52;;;8.63;;
52015;SDS011;38032;53.326;6.472;2022-08-19T04:49:15;11.38;;;8.05;;
52015;SDS011;38032;53.326;6.472;2022-08-19T04:51:44;12.10;;;8.35;;
52015;SDS011;38032;53.326;6.472;2022-08-19T04:54:12;12.30;;;8.15;;
52015;SDS011;38032;53.326;6.472;2022-08-19T04:56:38;11.43;;;8.02;;
52015;SDS011;38032;53.326;6.472;2022-08-19T04:59:05;9.95;;;7.65;;
52015;SDS011;38032;53.326;6.472;2022-08-19T05:01:32;8.93;;;6.00;;
52015;SDS011;38032;53.326;6.472;2022-08-19T05:03:59;6.00;;;4.22;;
52015;SDS011;38032;53.326;6.472;2022-08-19T05:06:26;6.80;;;4.13;;
52015;SDS011;38032;53.326;6.472;2022-08-19T05:08:53;5.90;;;4.05;;
52015;SDS011;38032;53.326;6.472;2022-08-19T05:11:21;8.25;;;4.45;;
52015;SDS011;38032;53.326;6.472;2022-08-19T05:13:49;7.13;;;5.03;;
52015;SDS011;38032;53.326;6.472;2022-08-19T05:16:17;13.15;;;8.18;;
52015;SDS011;38032;53.326;6.472;2022-08-19T05:18:44;11.57;;;8.23;;
52015;SDS011;38032;53.326;6.472;2022-08-19T05:21:29;11.80;;;8.25;;
52015;SDS011;38032;53.326;6.472;2022-08-19T05:24:14;17.95;;;9.30;;
52015;SDS011;38032;53.326;6.472;2022-08-19T05:26:41;15.85;;;10.32;;
52015;SDS011;38032;53.326;6.472;2022-08-19T05:29:11;16.45;;;10.18;;
52015;SDS011;38032;53.326;6.472;2022-08-19T05:31:38;14.35;;;9.52;;
52015;SDS011;38032;53.326;6.472;2022-08-19T05:34:04;17.92;;;11.05;;
52015;SDS011;38032;53.326;6.472;2022-08-19T05:36:34;17.10;;;10.60;;
52015;SDS011;38032;53.326;6.472;2022-08-19T05:39:04;14.52;;;10.38;;
52015;SDS011;38032;53.326;6.472;2022-08-19T05:41:31;17.77;;;11.15;;
52015;SDS011;38032;53.326;6.472;2022-08-19T05:43:57;16.13;;;10.10;;
52015;SDS011;38032;53.326;6.472;2022-08-19T05:46:25;16.83;;;11.30;;
52015;SDS011;38032;53.326;6.472;2022-08-19T05:48:51;21.02;;;12.25;;
52015;SDS011;38032;53.326;6.472;2022-08-19T05:51:18;17.88;;;10.95;;
52015;SDS011;38032;53.326;6.472;2022-08-19T05:53:44;17.38;;;11.40;;
52015;SDS011;38032;53.326;6.472;2022-08-19T05:56:13;17.58;;;11.70;;
52015;SDS011;38032;53.326;6.472;2022-08-19T05:58:41;19.63;;;10.70;;
52015;SDS011;38032;53.326;6.472;2022-08-19T06:01:09;15.85;;;9.98;;
52015;SDS011;38032;53.326;6.472;2022-08-19T06:03:37;14.00;;;9.30;;
52015;SDS011;38032;53.326;6.472;2022-08-19T06:06:05;14.02;;;9.80;;
52015;SDS011;38032;53.326;6.472;2022-08-19T06:08:33;18.23;;;11.13;;
52015;SDS011;38032;53.326;6.472;2022-08-19T06:13:49;19.23;;;11.15;;
52015;SDS011;38032;53.326;6.472;2022-08-19T06:16:18;19.77;;;10.38;;
52015;SDS011;38032;53.326;6.472;2022-08-19T06:18:46;18.27;;;10.55;;
52015;SDS011;38032;53.326;6.472;2022-08-19T06:21:12;19.00;;;11.40;;
52015;SDS011;38032;53.326;6.472;2022-08-19T06:23:37;20.27;;;11.27;;
52015;SDS011;38032;53.326;6.472;2022-08-19T06:26:04;16.77;;;10.50;;
52015;SDS011;38032;53.326;6.472;2022-08-19T06:28:30;18.30;;;11.40;;
52015;SDS011;38032;53.326;6.472;2022-08-19T06:30:58;18.35;;;11.32;;
52015;SDS011;38032;53.326;6.472;2022-08-19T06:33:23;17.45;;;11.00;;
52015;SDS011;38032;53.326;6.472;2022-08-19T06:35:49;22.02;;;13.43;;
52015;SDS011;38032;53.326;6.472;2022-08-19T06:38:15;21.70;;;13.70;;
52015;SDS011;38032;53.326;6.472;2022-08-19T06:40:41;24.23;;;13.70;;
52015;SDS011;38032;53.326;6.472;2022-08-19T06:43:07;18.65;;;11.38;;
52015;SDS011;38032;53.326;6.472;2022-08-19T06:45:32;16.80;;;11.40;;
52015;SDS011;38032;53.326;6.472;2022-08-19T06:47:59;23.45;;;12.55;;
52015;SDS011;38032;53.326;6.472;2022-08-19T06:50:25;16.30;;;10.75;;
52015;SDS011;38032;53.326;6.472;2022-08-19T06:52:51;17.17;;;11.18;;
52015;SDS011;38032;53.326;6.472;2022-08-19T06:55:16;16.25;;;11.43;;
52015;SDS011;38032;53.326;6.472;2022-08-19T06:57:42;20.40;;;12.60;;
52015;SDS011;38032;53.326;6.472;2022-08-19T07:00:10;16.73;;;10.98;;
52015;SDS011;38032;53.326;6.472;2022-08-19T07:02:40;14.63;;;10.38;;
52015;SDS011;38032;53.326;6.472;2022-08-19T07:05:06;14.43;;;9.13;;
52015;SDS011;38032;53.326;6.472;2022-08-19T07:07:32;16.17;;;9.95;;
52015;SDS011;38032;53.326;6.472;2022-08-19T07:09:59;16.73;;;11.13;;
52015;SDS011;38032;53.326;6.472;2022-08-19T07:12:26;13.55;;;9.02;;
52015;SDS011;38032;53.326;6.472;2022-08-19T07:14:54;14.27;;;9.48;;
52015;SDS011;38032;53.326;6.472;2022-08-19T07:17:20;13.00;;;9.38;;
52015;SDS011;38032;53.326;6.472;2022-08-19T07:19:45;15.18;;;9.23;;
52015;SDS011;38032;53.326;6.472;2022-08-19T07:22:11;20.77;;;9.57;;
52015;SDS011;38032;53.326;6.472;2022-08-19T07:24:37;15.05;;;9.80;;
52015;SDS011;38032;53.326;6.472;2022-08-19T07:27:04;9.52;;;6.82;;
52015;SDS011;38032;53.326;6.472;2022-08-19T07:29:32;12.20;;;8.52;;
52015;SDS011;38032;53.326;6.472;2022-08-19T07:31:59;14.55;;;8.60;;
52015;SDS011;38032;53.326;6.472;2022-08-19T07:34:27;15.43;;;11.15;;
52015;SDS011;38032;53.326;6.472;2022-08-19T07:36:54;13.30;;;10.73;;
52015;SDS011;38032;53.326;6.472;2022-08-19T07:39:23;15.23;;;9.85;;
52015;SDS011;38032;53.326;6.472;2022-08-19T07:41:51;12.38;;;7.68;;
52015;SDS011;38032;53.326;6.472;2022-08-19T07:44:18;10.30;;;6.85;;
52015;SDS011;38032;53.326;6.472;2022-08-19T07:46:46;12.25;;;8.55;;
52015;SDS011;38032;53.326;6.472;2022-08-19T07:49:14;9.02;;;7.70;;
52015;SDS011;38032;53.326;6.472;2022-08-19T07:51:46;11.18;;;7.65;;
52015;SDS011;38032;53.326;6.472;2022-08-19T07:54:13;12.13;;;8.25;;
52015;SDS011;38032;53.326;6.472;2022-08-19T07:56:39;11.18;;;8.85;;
52015;SDS011;38032;53.326;6.472;2022-08-19T07:59:05;9.82;;;6.88;;
52015;SDS011;38032;53.326;6.472;2022-08-19T08:01:31;8.48;;;6.93;;
52015;SDS011;38032;53.326;6.472;2022-08-19T08:03:57;11.50;;;9.20;;
52015;SDS011;38032;53.326;6.472;2022-08-19T08:06:42;12.63;;;10.05;;
52015;SDS011;38032;53.326;6.472;2022-08-19T08:09:28;9.90;;;6.93;;
52015;SDS011;38032;53.326;6.472;2022-08-19T08:11:58;8.10;;;5.90;;
52015;SDS011;38032;53.326;6.472;2022-08-19T08:14:28;7.57;;;6.30;;
52015;SDS011;38032;53.326;6.472;2022-08-19T08:16:56;7.90;;;5.35;;
52015;SDS011;38032;53.326;6.472;2022-08-19T08:19:23;8.27;;;7.18;;
52015;SDS011;38032;53.326;6.472;2022-08-19T08:21:50;9.68;;;7.78;;
52015;SDS011;38032;53.326;6.472;2022-08-19T08:24:17;10.43;;;7.93;;
52015;SDS011;38032;53.326;6.472;2022-08-19T08:26:43;9.85;;;7.10;;
52015;SDS011;38032;53.326;6.472;2022-08-19T08:29:11;15.98;;;10.55;;
52015;SDS011;38032;53.326;6.472;2022-08-19T08:31:37;8.70;;;6.60;;
52015;SDS011;38032;53.326;6.472;2022-08-19T08:34:06;6.72;;;4.72;;
52015;SDS011;38032;53.326;6.472;2022-08-19T08:36:32;7.05;;;5.97;;
52015;SDS011;38032;53.326;6.472;2022-08-19T08:39:06;8.77;;;7.72;;
52015;SDS011;38032;53.326;6.472;2022-08-19T08:41:40;7.68;;;6.28;;
52015;SDS011;38032;53.326;6.472;2022-08-19T08:44:15;7.13;;;6.25;;
52015;SDS011;38032;53.326;6.472;2022-08-19T08:46:46;7.05;;;5.32;;
52015;SDS011;38032;53.326;6.472;2022-08-19T08:49:28;9.70;;;7.15;;
52015;SDS011;38032;53.326;6.472;2022-08-19T08:52:05;10.05;;;7.35;;
52015;SDS011;38032;53.326;6.472;2022-08-19T08:54:37;8.02;;;7.22;;
52015;SDS011;38032;53.326;6.472;2022-08-19T08:57:10;6.07;;;5.00;;
52015;SDS011;38032;53.326;6.472;2022-08-19T08:59:43;7.53;;;5.70;;
52015;SDS011;38032;53.326;6.472;2022-08-19T09:02:16;12.38;;;7.95;;
52015;SDS011;38032;53.326;6.472;2022-08-19T09:04:42;11.05;;;9.77;;
52015;SDS011;38032;53.326;6.472;2022-08-19T09:09:55;10.38;;;7.63;;
52015;SDS011;38032;53.326;6.472;2022-08-19T09:15:13;6.03;;;3.60;;
52015;SDS011;38032;53.326;6.472;2022-08-19T09:17:41;11.55;;;8.02;;
52015;SDS011;38032;53.326;6.472;2022-08-19T09:20:14;7.60;;;5.47;;
52015;SDS011;38032;53.326;6.472;2022-08-19T09:22:44;9.70;;;6.38;;
52015;SDS011;38032;53.326;6.472;2022-08-19T09:25:12;7.95;;;6.90;;
52015;SDS011;38032;53.326;6.472;2022-08-19T09:27:41;9.77;;;7.95;;
52015;SDS011;38032;53.326;6.472;2022-08-19T09:30:08;9.38;;;7.38;;
52015;SDS011;38032;53.326;6.472;2022-08-19T09:32:36;12.63;;;8.20;;
52015;SDS011;38032;53.326;6.472;2022-08-19T09:35:04;9.68;;;6.88;;
52015;SDS011;38032;53.326;6.472;2022-08-19T09:37:31;9.35;;;7.80;;
52015;SDS011;38032;53.326;6.472;2022-08-19T09:39:57;9.43;;;7.72;;
52015;SDS011;38032;53.326;6.472;2022-08-19T09:42:22;8.57;;;7.63;;
52015;SDS011;38032;53.326;6.472;2022-08-19T09:44:48;7.95;;;7.15;;
52015;SDS011;38032;53.326;6.472;2022-08-19T09:47:14;12.85;;;8.45;;
52015;SDS011;38032;53.326;6.472;2022-08-19T09:49:40;11.90;;;8.27;;
52015;SDS011;38032;53.326;6.472;2022-08-19T09:52:09;8.77;;;7.88;;
52015;SDS011;38032;53.326;6.472;2022-08-19T09:54:36;7.90;;;7.07;;
52015;SDS011;38032;53.326;6.472;2022-08-19T09:57:03;9.40;;;7.47;;
52015;SDS011;38032;53.326;6.472;2022-08-19T09:59:29;8.00;;;7.03;;
52015;SDS011;38032;53.326;6.472;2022-08-19T10:01:55;7.88;;;7.07;;
52015;SDS011;38032;53.326;6.472;2022-08-19T10:04:21;8.15;;;7.35;;
52015;SDS011;38032;53.326;6.472;2022-08-19T10:06:47;8.63;;;7.72;;
52015;SDS011;38032;53.326;6.472;2022-08-19T10:09:15;8.55;;;7.13;;
52015;SDS011;38032;53.326;6.472;2022-08-19T10:11:43;7.25;;;6.55;;
52015;SDS011;38032;53.326;6.472;2022-08-19T10:14:14;11.18;;;7.97;;
52015;SDS011;38032;53.326;6.472;2022-08-19T10:16:42;8.55;;;7.75;;
52015;SDS011;38032;53.326;6.472;2022-08-19T10:19:08;9.23;;;7.95;;
52015;SDS011;38032;53.326;6.472;2022-08-19T10:21:34;8.82;;;6.75;;
52015;SDS011;38032;53.326;6.472;2022-08-19T10:24:01;9.23;;;8.32;;
52015;SDS011;38032;53.326;6.472;2022-08-19T10:26:31;9.98;;;8.98;;
52015;SDS011;38032;53.326;6.472;2022-08-19T10:28:59;9.98;;;8.98;;
52015;SDS011;38032;53.326;6.472;2022-08-19T10:31:27;9.68;;;8.50;;
52015;SDS011;38032;53.326;6.472;2022-08-19T10:33:54;9.55;;;8.00;;
52015;SDS011;38032;53.326;6.472;2022-08-19T10:36:24;9.90;;;8.90;;
52015;SDS011;38032;53.326;6.472;2022-08-19T10:38:53;9.15;;;8.30;;
52015;SDS011;38032;53.326;6.472;2022-08-19T10:41:23;10.30;;;9.15;;
52015;SDS011;38032;53.326;6.472;2022-08-19T10:43:53;11.48;;;10.27;;
52015;SDS011;38032;53.326;6.472;2022-08-19T10:46:21;11.23;;;10.15;;
52015;SDS011;38032;53.326;6.472;2022-08-19T10:48:48;10.40;;;9.27;;
52015;SDS011;38032;53.326;6.472;2022-08-19T10:51:15;9.65;;;8.00;;
52015;SDS011;38032;53.326;6.472;2022-08-19T10:54:00;9.23;;;8.32;;
52015;SDS011;38032;53.326;6.472;2022-08-19T10:56:27;9.70;;;8.65;;
52015;SDS011;38032;53.326;6.472;2022-08-19T10:59:12;9.98;;;8.60;;
52015;SDS011;38032;53.326;6.472;2022-08-19T11:01:39;8.70;;;7.80;;
52015;SDS011;38032;53.326;6.472;2022-08-19T11:04:07;8.63;;;7.43;;
52015;SDS011;38032;53.326;6.472;2022-08-19T11:06:38;9.15;;;8.25;;
52015;SDS011;38032;53.326;6.472;2022-08-19T11:09:06;11.18;;;10.02;;
52015;SDS011;38032;53.326;6.472;2022-08-19T11:11:33;10.18;;;8.20;;
52015;SDS011;38032;53.326;6.472;2022-08-19T11:14:05;9.43;;;8.00;;
52015;SDS011;38032;53.326;6.472;2022-08-19T11:16:33;8.98;;;7.80;;
52015;SDS011;38032;53.326;6.472;2022-08-19T11:18:59;8.18;;;7.35;;
52015;SDS011;38032;53.326;6.472;2022-08-19T11:21:26;10.07;;;8.70;;
52015;SDS011;38032;53.326;6.472;2022-08-19T11:23:58;10.05;;;9.13;;
52015;SDS011;38032;53.326;6.472;2022-08-19T11:26:28;11.02;;;9.02;;
52015;SDS011;38032;53.326;6.472;2022-08-19T11:28:55;11.52;;;10.43;;
52015;SDS011;38032;53.326;6.472;2022-08-19T11:31:23;11.93;;;9.27;;
52015;SDS011;38032;53.326;6.472;2022-08-19T11:33:52;8.88;;;7.60;;
52015;SDS011;38032;53.326;6.472;2022-08-19T11:36:19;9.18;;;8.27;;
52015;SDS011;38032;53.326;6.472;2022-08-19T11:38:46;9.93;;;8.93;;
52015;SDS011;38032;53.326;6.472;2022-08-19T11:41:13;11.05;;;9.82;;
52015;SDS011;38032;53.326;6.472;2022-08-19T11:43:40;11.32;;;10.23;;
52015;SDS011;38032;53.326;6.472;2022-08-19T11:46:07;9.13;;;8.15;;
52015;SDS011;38032;53.326;6.472;2022-08-19T11:48:35;9.48;;;8.00;;
52015;SDS011;38032;53.326;6.472;2022-08-19T11:51:03;8.02;;;7.22;;
52015;SDS011;38032;53.326;6.472;2022-08-19T11:53:31;10.45;;;8.63;;
52015;SDS011;38032;53.326;6.472;2022-08-19T11:55:58;9.27;;;8.38;;
52015;SDS011;38032;53.326;6.472;2022-08-19T11:58:23;9.27;;;7.95;;
52015;SDS011;38032;53.326;6.472;2022-08-19T12:00:50;9.15;;;8.20;;
52015;SDS011;38032;53.326;6.472;2022-08-19T12:03:16;10.25;;;8.20;;
52015;SDS011;38032;53.326;6.472;2022-08-19T12:05:43;10.52;;;9.52;;
52015;SDS011;38032;53.326;6.472;2022-08-19T12:08:09;9.57;;;8.35;;
52015;SDS011;38032;53.326;6.472;2022-08-19T12:10:36;11.23;;;9.75;;
52015;SDS011;38032;53.326;6.472;2022-08-19T12:13:02;9.85;;;8.85;;
52015;SDS011;38032;53.326;6.472;2022-08-19T12:15:28;12.13;;;9.70;;
52015;SDS011;38032;53.326;6.472;2022-08-19T12:17:55;10.02;;;8.45;;
52015;SDS011;38032;53.326;6.472;2022-08-19T12:20:22;11.52;;;9.18;;
52015;SDS011;38032;53.326;6.472;2022-08-19T12:22:49;8.88;;;7.97;;
52015;SDS011;38032;53.326;6.472;2022-08-19T12:25:15;10.23;;;9.05;;
52015;SDS011;38032;53.326;6.472;2022-08-19T12:27:41;10.23;;;9.10;;
52015;SDS011;38032;53.326;6.472;2022-08-19T12:30:09;10.20;;;8.88;;
52015;SDS011;38032;53.326;6.472;2022-08-19T12:32:36;9.95;;;8.95;;
52015;SDS011;38032;53.326;6.472;2022-08-19T12:35:03;10.07;;;8.98;;
52015;SDS011;38032;53.326;6.472;2022-08-19T12:37:30;12.05;;;9.43;;
52015;SDS011;38032;53.326;6.472;2022-08-19T12:39:57;10.73;;;9.18;;
52015;SDS011;38032;53.326;6.472;2022-08-19T12:42:23;13.60;;;10.30;;
52015;SDS011;38032;53.326;6.472;2022-08-19T12:44:49;12.38;;;9.20;;
52015;SDS011;38032;53.326;6.472;2022-08-19T12:47:16;11.40;;;8.95;;
52015;SDS011;38032;53.326;6.472;2022-08-19T12:49:43;14.98;;;10.05;;
52015;SDS011;38032;53.326;6.472;2022-08-19T12:52:10;16.75;;;9.93;;
52015;SDS011;38032;53.326;6.472;2022-08-19T12:54:36;18.08;;;10.18;;
52015;SDS011;38032;53.326;6.472;2022-08-19T12:57:06;17.80;;;10.00;;
52015;SDS011;38032;53.326;6.472;2022-08-19T12:59:33;15.57;;;10.68;;
52015;SDS011;38032;53.326;6.472;2022-08-19T13:02:02;16.60;;;11.00;;
52015;SDS011;38032;53.326;6.472;2022-08-19T13:04:30;17.02;;;11.50;;
52015;SDS011;38032;53.326;6.472;2022-08-19T13:06:56;13.85;;;11.00;;
52015;SDS011;38032;53.326;6.472;2022-08-19T13:09:23;15.85;;;10.52;;
52015;SDS011;38032;53.326;6.472;2022-08-19T13:11:49;12.48;;;9.45;;
52015;SDS011;38032;53.326;6.472;2022-08-19T13:14:15;14.68;;;9.73;;
52015;SDS011;38032;53.326;6.472;2022-08-19T13:16:41;14.25;;;9.35;;
52015;SDS011;38032;53.326;6.472;2022-08-19T13:19:07;17.45;;;11.38;;
52015;SDS011;38032;53.326;6.472;2022-08-19T13:21:33;15.68;;;11.93;;
52015;SDS011;38032;53.326;6.472;2022-08-19T13:23:59;15.63;;;10.80;;
52015;SDS011;38032;53.326;6.472;2022-08-19T13:26:25;17.00;;;10.90;;
52015;SDS011;38032;53.326;6.472;2022-08-19T13:28:50;13.90;;;10.55;;
52015;SDS011;38032;53.326;6.472;2022-08-19T13:31:49;20.60;;;11.43;;
52015;SDS011;38032;53.326;6.472;2022-08-19T13:34:43;14.98;;;11.02;;
52015;SDS011;38032;53.326;6.472;2022-08-19T13:37:11;14.77;;;10.35;;
52015;SDS011;38032;53.326;6.472;2022-08-19T13:39:37;13.73;;;9.65;;
52015;SDS011;38032;53.326;6.472;2022-08-19T13:42:03;12.90;;;10.00;;
52015;SDS011;38032;53.326;6.472;2022-08-19T13:44:30;13.52;;;9.23;;
52015;SDS011;38032;53.326;6.472;2022-08-19T13:47:01;15.77;;;10.98;;
52015;SDS011;38032;53.326;6.472;2022-08-19T13:49:32;16.80;;;10.73;;
52015;SDS011;38032;53.326;6.472;2022-08-19T13:51:59;14.55;;;10.88;;
52015;SDS011;38032;53.326;6.472;2022-08-19T13:54:25;16.33;;;11.15;;
52015;SDS011;38032;53.326;6.472;2022-08-19T13:56:52;12.88;;;10.80;;
52015;SDS011;38032;53.326;6.472;2022-08-19T13:59:17;12.10;;;9.13;;
52015;SDS011;38032;53.326;6.472;2022-08-19T14:01:44;10.40;;;8.00;;
52015;SDS011;38032;53.326;6.472;2022-08-19T14:04:10;11.57;;;8.05;;
52015;SDS011;38032;53.326;6.472;2022-08-19T14:06:35;11.75;;;7.88;;
52015;SDS011;38032;53.326;6.472;2022-08-19T14:09:01;13.05;;;8.55;;
52015;SDS011;38032;53.326;6.472;2022-08-19T14:11:28;13.50;;;9.07;;
52015;SDS011;38032;53.326;6.472;2022-08-19T14:13:54;13.45;;;9.48;;
52015;SDS011;38032;53.326;6.472;2022-08-19T14:16:20;12.82;;;9.45;;
52015;SDS011;38032;53.326;6.472;2022-08-19T14:18:46;10.80;;;7.32;;
52015;SDS011;38032;53.326;6.472;2022-08-19T14:21:15;8.82;;;6.68;;
52015;SDS011;38032;53.326;6.472;2022-08-19T14:23:42;9.18;;;6.97;;
52015;SDS011;38032;53.326;6.472;2022-08-19T14:26:09;13.32;;;7.32;;
52015;SDS011;38032;53.326;6.472;2022-08-19T14:28:39;11.00;;;6.25;;
52015;SDS011;38032;53.326;6.472;2022-08-19T14:31:07;10.52;;;7.35;;
52015;SDS011;38032;53.326;6.472;2022-08-19T14:33:34;10.20;;;7.78;;
52015;SDS011;38032;53.326;6.472;2022-08-19T14:36:00;11.23;;;8.50;;
52015;SDS011;38032;53.326;6.472;2022-08-19T14:38:26;11.85;;;8.20;;
52015;SDS011;38032;53.326;6.472;2022-08-19T14:40:54;9.43;;;7.93;;
52015;SDS011;38032;53.326;6.472;2022-08-19T14:43:20;13.68;;;10.00;;
52015;SDS011;38032;53.326;6.472;2022-08-19T14:45:47;13.32;;;9.45;;
52015;SDS011;38032;53.326;6.472;2022-08-19T14:48:12;12.18;;;9.18;;
52015;SDS011;38032;53.326;6.472;2022-08-19T14:50:38;13.40;;;9.18;;